<?xml version="1.0" encoding="UTF-8" standalone="no" ?>
<gpx xmlns="http://www.topografix.com/GPX/1/1" xmlns:xsi="http://www.w3.org/2001/XMLSchema-instance" xsi:schemaLocation="http://www.topografix.com/GPX/1/1 http://www.topografix.com/GPX/1/1/gpx.xsd" version="1.1" creator="VisuGPX - https://www.visugpx.com">
  <metadata>
    <name>La Chapelle-de-Guinchay Cyclisme</name>
    <desc><![CDATA[Col du Fût d'Avenas au départ de la rivière la Grosne Orientale]]></desc>
  </metadata>
  <trk>
    <name><![CDATA[La Chapelle-de-Guinchay Cyclisme]]></name>
    <trkseg>
      <trkpt lat="46.19365" lon="4.59176">
        <ele>629</ele>
        <time>2019-08-27T15:22:48.000Z</time>
      </trkpt>
      <trkpt lat="46.19373" lon="4.59207">
        <ele>628</ele>
        <time>2019-08-27T15:22:51.000Z</time>
      </trkpt>
      <trkpt lat="46.19393" lon="4.59221">
        <ele>628.79998779297</ele>
        <time>2019-08-27T15:22:54.000Z</time>
      </trkpt>
      <trkpt lat="46.194" lon="4.59224">
        <ele>628.40002441406</ele>
        <time>2019-08-27T15:22:55.000Z</time>
      </trkpt>
      <trkpt lat="46.19423" lon="4.59231">
        <ele>627.20001220703</ele>
        <time>2019-08-27T15:22:59.000Z</time>
      </trkpt>
      <trkpt lat="46.19434" lon="4.59237">
        <ele>627.40002441406</ele>
        <time>2019-08-27T15:23:01.000Z</time>
      </trkpt>
      <trkpt lat="46.19448" lon="4.59245">
        <ele>627.79998779297</ele>
        <time>2019-08-27T15:23:04.000Z</time>
      </trkpt>
      <trkpt lat="46.19462" lon="4.59255">
        <ele>628.20001220703</ele>
        <time>2019-08-27T15:23:07.000Z</time>
      </trkpt>
      <trkpt lat="46.19474" lon="4.59263">
        <ele>628.59997558594</ele>
        <time>2019-08-27T15:23:10.000Z</time>
      </trkpt>
      <trkpt lat="46.19482" lon="4.59268">
        <ele>629</ele>
        <time>2019-08-27T15:23:12.000Z</time>
      </trkpt>
      <trkpt lat="46.19504" lon="4.59279">
        <ele>629.79998779297</ele>
        <time>2019-08-27T15:23:17.000Z</time>
      </trkpt>
      <trkpt lat="46.19534" lon="4.59289">
        <ele>630.40002441406</ele>
        <time>2019-08-27T15:23:24.000Z</time>
      </trkpt>
      <trkpt lat="46.19559" lon="4.59296">
        <ele>631.20001220703</ele>
        <time>2019-08-27T15:23:30.000Z</time>
      </trkpt>
      <trkpt lat="46.19563" lon="4.59296">
        <ele>631</ele>
        <time>2019-08-27T15:23:31.000Z</time>
      </trkpt>
      <trkpt lat="46.19579" lon="4.59301">
        <ele>629.59997558594</ele>
        <time>2019-08-27T15:23:35.000Z</time>
      </trkpt>
      <trkpt lat="46.19585" lon="4.59304">
        <ele>629.40002441406</ele>
        <time>2019-08-27T15:23:37.000Z</time>
      </trkpt>
      <trkpt lat="46.19592" lon="4.59307">
        <ele>629</ele>
        <time>2019-08-27T15:23:39.000Z</time>
      </trkpt>
      <trkpt lat="46.19597" lon="4.5931">
        <ele>629</ele>
        <time>2019-08-27T15:23:41.000Z</time>
      </trkpt>
      <trkpt lat="46.19603" lon="4.59315">
        <ele>629.20001220703</ele>
        <time>2019-08-27T15:23:43.000Z</time>
      </trkpt>
      <trkpt lat="46.1961" lon="4.59324">
        <ele>629.79998779297</ele>
        <time>2019-08-27T15:23:46.000Z</time>
      </trkpt>
      <trkpt lat="46.19618" lon="4.59334">
        <ele>630.40002441406</ele>
        <time>2019-08-27T15:23:49.000Z</time>
      </trkpt>
      <trkpt lat="46.19623" lon="4.59342">
        <ele>631.40002441406</ele>
        <time>2019-08-27T15:23:51.000Z</time>
      </trkpt>
      <trkpt lat="46.19626" lon="4.59347">
        <ele>631.79998779297</ele>
        <time>2019-08-27T15:23:52.000Z</time>
      </trkpt>
      <trkpt lat="46.19633" lon="4.5936">
        <ele>633.20001220703</ele>
        <time>2019-08-27T15:23:55.000Z</time>
      </trkpt>
      <trkpt lat="46.19639" lon="4.59369">
        <ele>634</ele>
        <time>2019-08-27T15:23:57.000Z</time>
      </trkpt>
      <trkpt lat="46.19642" lon="4.59374">
        <ele>634.20001220703</ele>
        <time>2019-08-27T15:23:58.000Z</time>
      </trkpt>
      <trkpt lat="46.19648" lon="4.59382">
        <ele>634.79998779297</ele>
        <time>2019-08-27T15:24:00.000Z</time>
      </trkpt>
      <trkpt lat="46.19652" lon="4.59387">
        <ele>634.79998779297</ele>
        <time>2019-08-27T15:24:01.000Z</time>
      </trkpt>
      <trkpt lat="46.19656" lon="4.59391">
        <ele>635</ele>
        <time>2019-08-27T15:24:02.000Z</time>
      </trkpt>
      <trkpt lat="46.19668" lon="4.594">
        <ele>634.59997558594</ele>
        <time>2019-08-27T15:24:05.000Z</time>
      </trkpt>
      <trkpt lat="46.19681" lon="4.5941">
        <ele>634.20001220703</ele>
        <time>2019-08-27T15:24:08.000Z</time>
      </trkpt>
      <trkpt lat="46.19696" lon="4.59426">
        <ele>634.79998779297</ele>
        <time>2019-08-27T15:24:12.000Z</time>
      </trkpt>
      <trkpt lat="46.19699" lon="4.5943">
        <ele>635</ele>
        <time>2019-08-27T15:24:13.000Z</time>
      </trkpt>
      <trkpt lat="46.19704" lon="4.5944">
        <ele>635.59997558594</ele>
        <time>2019-08-27T15:24:15.000Z</time>
      </trkpt>
      <trkpt lat="46.19713" lon="4.59459">
        <ele>636.79998779297</ele>
        <time>2019-08-27T15:24:19.000Z</time>
      </trkpt>
      <trkpt lat="46.19721" lon="4.59478">
        <ele>637.40002441406</ele>
        <time>2019-08-27T15:24:23.000Z</time>
      </trkpt>
      <trkpt lat="46.19729" lon="4.59497">
        <ele>637.79998779297</ele>
        <time>2019-08-27T15:24:27.000Z</time>
      </trkpt>
      <trkpt lat="46.19735" lon="4.59509">
        <ele>636.79998779297</ele>
        <time>2019-08-27T15:24:30.000Z</time>
      </trkpt>
      <trkpt lat="46.19743" lon="4.59527">
        <ele>636.20001220703</ele>
        <time>2019-08-27T15:24:34.000Z</time>
      </trkpt>
      <trkpt lat="46.19746" lon="4.59536">
        <ele>636</ele>
        <time>2019-08-27T15:24:36.000Z</time>
      </trkpt>
      <trkpt lat="46.19756" lon="4.59562">
        <ele>636.20001220703</ele>
        <time>2019-08-27T15:24:42.000Z</time>
      </trkpt>
      <trkpt lat="46.19765" lon="4.59578">
        <ele>635.40002441406</ele>
        <time>2019-08-27T15:24:46.000Z</time>
      </trkpt>
      <trkpt lat="46.1977" lon="4.5959">
        <ele>634.79998779297</ele>
        <time>2019-08-27T15:24:49.000Z</time>
      </trkpt>
      <trkpt lat="46.1978" lon="4.59618">
        <ele>634.59997558594</ele>
        <time>2019-08-27T15:24:56.000Z</time>
      </trkpt>
      <trkpt lat="46.19787" lon="4.5964">
        <ele>634.79998779297</ele>
        <time>2019-08-27T15:25:01.000Z</time>
      </trkpt>
      <trkpt lat="46.19792" lon="4.59673">
        <ele>636.20001220703</ele>
        <time>2019-08-27T15:25:08.000Z</time>
      </trkpt>
      <trkpt lat="46.19794" lon="4.59692">
        <ele>638</ele>
        <time>2019-08-27T15:25:12.000Z</time>
      </trkpt>
      <trkpt lat="46.19795" lon="4.59702">
        <ele>639.20001220703</ele>
        <time>2019-08-27T15:25:14.000Z</time>
      </trkpt>
      <trkpt lat="46.19795" lon="4.59721">
        <ele>640.40002441406</ele>
        <time>2019-08-27T15:25:18.000Z</time>
      </trkpt>
      <trkpt lat="46.19799" lon="4.5975">
        <ele>641.40002441406</ele>
        <time>2019-08-27T15:25:24.000Z</time>
      </trkpt>
      <trkpt lat="46.198" lon="4.5977">
        <ele>642.59997558594</ele>
        <time>2019-08-27T15:25:28.000Z</time>
      </trkpt>
      <trkpt lat="46.19801" lon="4.59784">
        <ele>643</ele>
        <time>2019-08-27T15:25:31.000Z</time>
      </trkpt>
      <trkpt lat="46.198" lon="4.59809">
        <ele>644.59997558594</ele>
        <time>2019-08-27T15:25:36.000Z</time>
      </trkpt>
      <trkpt lat="46.19802" lon="4.59819">
        <ele>644.59997558594</ele>
        <time>2019-08-27T15:25:38.000Z</time>
      </trkpt>
      <trkpt lat="46.19801" lon="4.59828">
        <ele>645</ele>
        <time>2019-08-27T15:25:40.000Z</time>
      </trkpt>
      <trkpt lat="46.19799" lon="4.59842">
        <ele>646.40002441406</ele>
        <time>2019-08-27T15:25:43.000Z</time>
      </trkpt>
      <trkpt lat="46.19789" lon="4.59869">
        <ele>649</ele>
        <time>2019-08-27T15:25:50.000Z</time>
      </trkpt>
      <trkpt lat="46.19776" lon="4.59888">
        <ele>651</ele>
        <time>2019-08-27T15:25:56.000Z</time>
      </trkpt>
      <trkpt lat="46.19761" lon="4.59902">
        <ele>653.59997558594</ele>
        <time>2019-08-27T15:26:02.000Z</time>
      </trkpt>
      <trkpt lat="46.19755" lon="4.59906">
        <ele>654.40002441406</ele>
        <time>2019-08-27T15:26:04.000Z</time>
      </trkpt>
      <trkpt lat="46.19742" lon="4.5992">
        <ele>656.20001220703</ele>
        <time>2019-08-27T15:26:09.000Z</time>
      </trkpt>
      <trkpt lat="46.19734" lon="4.5993">
        <ele>657.40002441406</ele>
        <time>2019-08-27T15:26:13.000Z</time>
      </trkpt>
      <trkpt lat="46.19727" lon="4.59937">
        <ele>658.40002441406</ele>
        <time>2019-08-27T15:26:16.000Z</time>
      </trkpt>
      <trkpt lat="46.19724" lon="4.59943">
        <ele>659</ele>
        <time>2019-08-27T15:26:18.000Z</time>
      </trkpt>
      <trkpt lat="46.1972" lon="4.5996">
        <ele>658.79998779297</ele>
        <time>2019-08-27T15:26:22.000Z</time>
      </trkpt>
      <trkpt lat="46.19722" lon="4.59989">
        <ele>657</ele>
        <time>2019-08-27T15:26:28.000Z</time>
      </trkpt>
      <trkpt lat="46.19724" lon="4.6">
        <ele>656</ele>
        <time>2019-08-27T15:26:30.000Z</time>
      </trkpt>
      <trkpt lat="46.19729" lon="4.60013">
        <ele>653.79998779297</ele>
        <time>2019-08-27T15:26:33.000Z</time>
      </trkpt>
      <trkpt lat="46.19734" lon="4.60022">
        <ele>652.59997558594</ele>
        <time>2019-08-27T15:26:35.000Z</time>
      </trkpt>
      <trkpt lat="46.19743" lon="4.60037">
        <ele>650.20001220703</ele>
        <time>2019-08-27T15:26:39.000Z</time>
      </trkpt>
      <trkpt lat="46.19751" lon="4.60052">
        <ele>649.20001220703</ele>
        <time>2019-08-27T15:26:43.000Z</time>
      </trkpt>
      <trkpt lat="46.19757" lon="4.60065">
        <ele>648.59997558594</ele>
        <time>2019-08-27T15:26:46.000Z</time>
      </trkpt>
      <trkpt lat="46.19759" lon="4.60083">
        <ele>649</ele>
        <time>2019-08-27T15:26:50.000Z</time>
      </trkpt>
      <trkpt lat="46.19758" lon="4.60096">
        <ele>649.40002441406</ele>
        <time>2019-08-27T15:26:53.000Z</time>
      </trkpt>
      <trkpt lat="46.19756" lon="4.6011">
        <ele>650.40002441406</ele>
        <time>2019-08-27T15:26:56.000Z</time>
      </trkpt>
      <trkpt lat="46.19755" lon="4.60114">
        <ele>650.79998779297</ele>
        <time>2019-08-27T15:26:57.000Z</time>
      </trkpt>
      <trkpt lat="46.19751" lon="4.60127">
        <ele>651.59997558594</ele>
        <time>2019-08-27T15:27:00.000Z</time>
      </trkpt>
      <trkpt lat="46.19746" lon="4.60144">
        <ele>652.20001220703</ele>
        <time>2019-08-27T15:27:04.000Z</time>
      </trkpt>
      <trkpt lat="46.19743" lon="4.60152">
        <ele>652.59997558594</ele>
        <time>2019-08-27T15:27:06.000Z</time>
      </trkpt>
      <trkpt lat="46.19737" lon="4.60173">
        <ele>653.59997558594</ele>
        <time>2019-08-27T15:27:11.000Z</time>
      </trkpt>
      <trkpt lat="46.19734" lon="4.60181">
        <ele>654</ele>
        <time>2019-08-27T15:27:13.000Z</time>
      </trkpt>
      <trkpt lat="46.19728" lon="4.60203">
        <ele>655.20001220703</ele>
        <time>2019-08-27T15:27:18.000Z</time>
      </trkpt>
      <trkpt lat="46.19723" lon="4.6022">
        <ele>655.59997558594</ele>
        <time>2019-08-27T15:27:22.000Z</time>
      </trkpt>
      <trkpt lat="46.19721" lon="4.60224">
        <ele>655.79998779297</ele>
        <time>2019-08-27T15:27:23.000Z</time>
      </trkpt>
      <trkpt lat="46.19711" lon="4.60252">
        <ele>657</ele>
        <time>2019-08-27T15:27:30.000Z</time>
      </trkpt>
      <trkpt lat="46.19707" lon="4.60259">
        <ele>657.40002441406</ele>
        <time>2019-08-27T15:27:32.000Z</time>
      </trkpt>
      <trkpt lat="46.197" lon="4.60272">
        <ele>658.79998779297</ele>
        <time>2019-08-27T15:27:36.000Z</time>
      </trkpt>
      <trkpt lat="46.19694" lon="4.6028">
        <ele>659.59997558594</ele>
        <time>2019-08-27T15:27:39.000Z</time>
      </trkpt>
      <trkpt lat="46.19685" lon="4.6029">
        <ele>660.79998779297</ele>
        <time>2019-08-27T15:27:43.000Z</time>
      </trkpt>
      <trkpt lat="46.19678" lon="4.60297">
        <ele>661.40002441406</ele>
        <time>2019-08-27T15:27:46.000Z</time>
      </trkpt>
      <trkpt lat="46.19653" lon="4.60312">
        <ele>664.40002441406</ele>
        <time>2019-08-27T15:27:55.000Z</time>
      </trkpt>
      <trkpt lat="46.19636" lon="4.60318">
        <ele>667.20001220703</ele>
        <time>2019-08-27T15:28:01.000Z</time>
      </trkpt>
      <trkpt lat="46.19631" lon="4.60319">
        <ele>668.40002441406</ele>
        <time>2019-08-27T15:28:03.000Z</time>
      </trkpt>
      <trkpt lat="46.1961" lon="4.60322">
        <ele>672.59997558594</ele>
        <time>2019-08-27T15:28:10.000Z</time>
      </trkpt>
      <trkpt lat="46.19608" lon="4.60323">
        <ele>673.20001220703</ele>
        <time>2019-08-27T15:28:11.000Z</time>
      </trkpt>
      <trkpt lat="46.19596" lon="4.60325">
        <ele>675</ele>
        <time>2019-08-27T15:28:15.000Z</time>
      </trkpt>
      <trkpt lat="46.19584" lon="4.60327">
        <ele>676.40002441406</ele>
        <time>2019-08-27T15:28:19.000Z</time>
      </trkpt>
      <trkpt lat="46.19578" lon="4.60328">
        <ele>677.20001220703</ele>
        <time>2019-08-27T15:28:21.000Z</time>
      </trkpt>
      <trkpt lat="46.19565" lon="4.60329">
        <ele>678.79998779297</ele>
        <time>2019-08-27T15:28:25.000Z</time>
      </trkpt>
      <trkpt lat="46.1956" lon="4.60331">
        <ele>679.40002441406</ele>
        <time>2019-08-27T15:28:27.000Z</time>
      </trkpt>
      <trkpt lat="46.19551" lon="4.60333">
        <ele>680.40002441406</ele>
        <time>2019-08-27T15:28:30.000Z</time>
      </trkpt>
      <trkpt lat="46.19536" lon="4.60338">
        <ele>682</ele>
        <time>2019-08-27T15:28:35.000Z</time>
      </trkpt>
      <trkpt lat="46.19515" lon="4.60351">
        <ele>682.40002441406</ele>
        <time>2019-08-27T15:28:43.000Z</time>
      </trkpt>
      <trkpt lat="46.19512" lon="4.60353">
        <ele>682.20001220703</ele>
        <time>2019-08-27T15:28:44.000Z</time>
      </trkpt>
      <trkpt lat="46.19496" lon="4.60371">
        <ele>680.79998779297</ele>
        <time>2019-08-27T15:28:51.000Z</time>
      </trkpt>
      <trkpt lat="46.19485" lon="4.60388">
        <ele>680.20001220703</ele>
        <time>2019-08-27T15:28:57.000Z</time>
      </trkpt>
      <trkpt lat="46.19475" lon="4.60417">
        <ele>678.79998779297</ele>
        <time>2019-08-27T15:29:05.000Z</time>
      </trkpt>
      <trkpt lat="46.19474" lon="4.60421">
        <ele>678.59997558594</ele>
        <time>2019-08-27T15:29:06.000Z</time>
      </trkpt>
      <trkpt lat="46.1947" lon="4.60446">
        <ele>676.20001220703</ele>
        <time>2019-08-27T15:29:12.000Z</time>
      </trkpt>
      <trkpt lat="46.19469" lon="4.60455">
        <ele>675.79998779297</ele>
        <time>2019-08-27T15:29:14.000Z</time>
      </trkpt>
      <trkpt lat="46.19466" lon="4.60483">
        <ele>677.20001220703</ele>
        <time>2019-08-27T15:29:20.000Z</time>
      </trkpt>
      <trkpt lat="46.19464" lon="4.60492">
        <ele>677.79998779297</ele>
        <time>2019-08-27T15:29:22.000Z</time>
      </trkpt>
      <trkpt lat="46.19462" lon="4.6052">
        <ele>679.20001220703</ele>
        <time>2019-08-27T15:29:28.000Z</time>
      </trkpt>
      <trkpt lat="46.1946" lon="4.60529">
        <ele>678.79998779297</ele>
        <time>2019-08-27T15:29:30.000Z</time>
      </trkpt>
      <trkpt lat="46.19457" lon="4.60558">
        <ele>679</ele>
        <time>2019-08-27T15:29:36.000Z</time>
      </trkpt>
      <trkpt lat="46.19451" lon="4.606">
        <ele>680.20001220703</ele>
        <time>2019-08-27T15:29:45.000Z</time>
      </trkpt>
      <trkpt lat="46.19446" lon="4.60626">
        <ele>680.79998779297</ele>
        <time>2019-08-27T15:29:51.000Z</time>
      </trkpt>
      <trkpt lat="46.19442" lon="4.60648">
        <ele>681.20001220703</ele>
        <time>2019-08-27T15:29:56.000Z</time>
      </trkpt>
      <trkpt lat="46.1944" lon="4.60656">
        <ele>681.40002441406</ele>
        <time>2019-08-27T15:29:58.000Z</time>
      </trkpt>
      <trkpt lat="46.19436" lon="4.60674">
        <ele>682</ele>
        <time>2019-08-27T15:30:02.000Z</time>
      </trkpt>
      <trkpt lat="46.19432" lon="4.60696">
        <ele>683</ele>
        <time>2019-08-27T15:30:07.000Z</time>
      </trkpt>
      <trkpt lat="46.19429" lon="4.60708">
        <ele>683.40002441406</ele>
        <time>2019-08-27T15:30:10.000Z</time>
      </trkpt>
      <trkpt lat="46.19425" lon="4.60729">
        <ele>684.20001220703</ele>
        <time>2019-08-27T15:30:15.000Z</time>
      </trkpt>
      <trkpt lat="46.19423" lon="4.60738">
        <ele>684.59997558594</ele>
        <time>2019-08-27T15:30:17.000Z</time>
      </trkpt>
      <trkpt lat="46.19418" lon="4.60766">
        <ele>685.20001220703</ele>
        <time>2019-08-27T15:30:24.000Z</time>
      </trkpt>
      <trkpt lat="46.19411" lon="4.60793">
        <ele>686.20001220703</ele>
        <time>2019-08-27T15:30:31.000Z</time>
      </trkpt>
      <trkpt lat="46.19411" lon="4.60798">
        <ele>686.40002441406</ele>
        <time>2019-08-27T15:30:32.000Z</time>
      </trkpt>
      <trkpt lat="46.19407" lon="4.60814">
        <ele>687.20001220703</ele>
        <time>2019-08-27T15:30:36.000Z</time>
      </trkpt>
      <trkpt lat="46.19404" lon="4.60827">
        <ele>687.59997558594</ele>
        <time>2019-08-27T15:30:39.000Z</time>
      </trkpt>
      <trkpt lat="46.19403" lon="4.60834">
        <ele>687.79998779297</ele>
        <time>2019-08-27T15:30:41.000Z</time>
      </trkpt>
      <trkpt lat="46.19399" lon="4.6085">
        <ele>688.40002441406</ele>
        <time>2019-08-27T15:30:45.000Z</time>
      </trkpt>
      <trkpt lat="46.19398" lon="4.60859">
        <ele>688.59997558594</ele>
        <time>2019-08-27T15:30:47.000Z</time>
      </trkpt>
      <trkpt lat="46.19395" lon="4.6087">
        <ele>689</ele>
        <time>2019-08-27T15:30:50.000Z</time>
      </trkpt>
      <trkpt lat="46.19391" lon="4.6089">
        <ele>689.59997558594</ele>
        <time>2019-08-27T15:30:55.000Z</time>
      </trkpt>
      <trkpt lat="46.1939" lon="4.60897">
        <ele>689.79998779297</ele>
        <time>2019-08-27T15:30:57.000Z</time>
      </trkpt>
      <trkpt lat="46.19385" lon="4.6092">
        <ele>690.59997558594</ele>
        <time>2019-08-27T15:31:03.000Z</time>
      </trkpt>
      <trkpt lat="46.19383" lon="4.60931">
        <ele>691</ele>
        <time>2019-08-27T15:31:06.000Z</time>
      </trkpt>
      <trkpt lat="46.19379" lon="4.60948">
        <ele>691.59997558594</ele>
        <time>2019-08-27T15:31:10.000Z</time>
      </trkpt>
      <trkpt lat="46.19377" lon="4.60956">
        <ele>692.20001220703</ele>
        <time>2019-08-27T15:31:12.000Z</time>
      </trkpt>
      <trkpt lat="46.19371" lon="4.60975">
        <ele>693.79998779297</ele>
        <time>2019-08-27T15:31:17.000Z</time>
      </trkpt>
      <trkpt lat="46.19369" lon="4.60982">
        <ele>694.40002441406</ele>
        <time>2019-08-27T15:31:19.000Z</time>
      </trkpt>
      <trkpt lat="46.19364" lon="4.60995">
        <ele>695.79998779297</ele>
        <time>2019-08-27T15:31:23.000Z</time>
      </trkpt>
      <trkpt lat="46.19358" lon="4.61008">
        <ele>697</ele>
        <time>2019-08-27T15:31:27.000Z</time>
      </trkpt>
      <trkpt lat="46.19352" lon="4.61022">
        <ele>698.40002441406</ele>
        <time>2019-08-27T15:31:31.000Z</time>
      </trkpt>
      <trkpt lat="46.19345" lon="4.61034">
        <ele>699.79998779297</ele>
        <time>2019-08-27T15:31:35.000Z</time>
      </trkpt>
      <trkpt lat="46.19331" lon="4.61058">
        <ele>700.59997558594</ele>
        <time>2019-08-27T15:31:43.000Z</time>
      </trkpt>
      <trkpt lat="46.19317" lon="4.61083">
        <ele>702.40002441406</ele>
        <time>2019-08-27T15:31:51.000Z</time>
      </trkpt>
      <trkpt lat="46.19298" lon="4.61112">
        <ele>704</ele>
        <time>2019-08-27T15:32:01.000Z</time>
      </trkpt>
      <trkpt lat="46.19297" lon="4.61115">
        <ele>704.20001220703</ele>
        <time>2019-08-27T15:32:02.000Z</time>
      </trkpt>
      <trkpt lat="46.19287" lon="4.61129">
        <ele>705</ele>
        <time>2019-08-27T15:32:07.000Z</time>
      </trkpt>
      <trkpt lat="46.19285" lon="4.61132">
        <ele>705.20001220703</ele>
        <time>2019-08-27T15:32:08.000Z</time>
      </trkpt>
      <trkpt lat="46.19276" lon="4.61143">
        <ele>706</ele>
        <time>2019-08-27T15:32:12.000Z</time>
      </trkpt>
      <trkpt lat="46.1927" lon="4.6115">
        <ele>706.59997558594</ele>
        <time>2019-08-27T15:32:15.000Z</time>
      </trkpt>
      <trkpt lat="46.19265" lon="4.61156">
        <ele>707</ele>
        <time>2019-08-27T15:32:17.000Z</time>
      </trkpt>
      <trkpt lat="46.19254" lon="4.61168">
        <ele>708.79998779297</ele>
        <time>2019-08-27T15:32:22.000Z</time>
      </trkpt>
      <trkpt lat="46.1925" lon="4.61174">
        <ele>709.40002441406</ele>
        <time>2019-08-27T15:32:24.000Z</time>
      </trkpt>
      <trkpt lat="46.1924" lon="4.61192">
        <ele>711</ele>
        <time>2019-08-27T15:32:30.000Z</time>
      </trkpt>
      <trkpt lat="46.19237" lon="4.61199">
        <ele>711.40002441406</ele>
        <time>2019-08-27T15:32:32.000Z</time>
      </trkpt>
      <trkpt lat="46.19234" lon="4.6121">
        <ele>711.79998779297</ele>
        <time>2019-08-27T15:32:35.000Z</time>
      </trkpt>
      <trkpt lat="46.19231" lon="4.61226">
        <ele>711.79998779297</ele>
        <time>2019-08-27T15:32:39.000Z</time>
      </trkpt>
      <trkpt lat="46.19231" lon="4.6123">
        <ele>711.59997558594</ele>
        <time>2019-08-27T15:32:40.000Z</time>
      </trkpt>
      <trkpt lat="46.19228" lon="4.61251">
        <ele>711.20001220703</ele>
        <time>2019-08-27T15:32:45.000Z</time>
      </trkpt>
      <trkpt lat="46.19227" lon="4.61263">
        <ele>711</ele>
        <time>2019-08-27T15:32:48.000Z</time>
      </trkpt>
      <trkpt lat="46.19226" lon="4.61271">
        <ele>710.79998779297</ele>
        <time>2019-08-27T15:32:50.000Z</time>
      </trkpt>
      <trkpt lat="46.19226" lon="4.61283">
        <ele>710.40002441406</ele>
        <time>2019-08-27T15:32:53.000Z</time>
      </trkpt>
      <trkpt lat="46.19224" lon="4.61296">
        <ele>711</ele>
        <time>2019-08-27T15:32:56.000Z</time>
      </trkpt>
      <trkpt lat="46.19224" lon="4.613">
        <ele>711</ele>
        <time>2019-08-27T15:32:57.000Z</time>
      </trkpt>
      <trkpt lat="46.19224" lon="4.61308">
        <ele>711.40002441406</ele>
        <time>2019-08-27T15:32:59.000Z</time>
      </trkpt>
      <trkpt lat="46.19222" lon="4.61331">
        <ele>712.20001220703</ele>
        <time>2019-08-27T15:33:05.000Z</time>
      </trkpt>
      <trkpt lat="46.19222" lon="4.61339">
        <ele>712.59997558594</ele>
        <time>2019-08-27T15:33:07.000Z</time>
      </trkpt>
      <trkpt lat="46.19221" lon="4.6135">
        <ele>712.79998779297</ele>
        <time>2019-08-27T15:33:10.000Z</time>
      </trkpt>
      <trkpt lat="46.1922" lon="4.61366">
        <ele>713.40002441406</ele>
        <time>2019-08-27T15:33:14.000Z</time>
      </trkpt>
      <trkpt lat="46.1922" lon="4.61377">
        <ele>713.79998779297</ele>
        <time>2019-08-27T15:33:17.000Z</time>
      </trkpt>
      <trkpt lat="46.1922" lon="4.61396">
        <ele>714.79998779297</ele>
        <time>2019-08-27T15:33:22.000Z</time>
      </trkpt>
      <trkpt lat="46.1922" lon="4.614">
        <ele>715</ele>
        <time>2019-08-27T15:33:23.000Z</time>
      </trkpt>
      <trkpt lat="46.1922" lon="4.6142">
        <ele>715.79998779297</ele>
        <time>2019-08-27T15:33:28.000Z</time>
      </trkpt>
      <trkpt lat="46.1922" lon="4.61435">
        <ele>716.59997558594</ele>
        <time>2019-08-27T15:33:32.000Z</time>
      </trkpt>
      <trkpt lat="46.19221" lon="4.61451">
        <ele>717</ele>
        <time>2019-08-27T15:33:36.000Z</time>
      </trkpt>
      <trkpt lat="46.19223" lon="4.61479">
        <ele>718.59997558594</ele>
        <time>2019-08-27T15:33:43.000Z</time>
      </trkpt>
      <trkpt lat="46.19224" lon="4.61487">
        <ele>719.20001220703</ele>
        <time>2019-08-27T15:33:45.000Z</time>
      </trkpt>
      <trkpt lat="46.19224" lon="4.61512">
        <ele>720.79998779297</ele>
        <time>2019-08-27T15:33:51.000Z</time>
      </trkpt>
      <trkpt lat="46.19225" lon="4.6152">
        <ele>721.40002441406</ele>
        <time>2019-08-27T15:33:53.000Z</time>
      </trkpt>
      <trkpt lat="46.19226" lon="4.61551">
        <ele>723.20001220703</ele>
        <time>2019-08-27T15:34:01.000Z</time>
      </trkpt>
      <trkpt lat="46.19226" lon="4.61562">
        <ele>723.79998779297</ele>
        <time>2019-08-27T15:34:04.000Z</time>
      </trkpt>
      <trkpt lat="46.19227" lon="4.61576">
        <ele>724.59997558594</ele>
        <time>2019-08-27T15:34:08.000Z</time>
      </trkpt>
      <trkpt lat="46.19228" lon="4.61596">
        <ele>725.59997558594</ele>
        <time>2019-08-27T15:34:13.000Z</time>
      </trkpt>
      <trkpt lat="46.19229" lon="4.61601">
        <ele>725.79998779297</ele>
        <time>2019-08-27T15:34:14.000Z</time>
      </trkpt>
      <trkpt lat="46.19231" lon="4.61627">
        <ele>727.40002441406</ele>
        <time>2019-08-27T15:34:21.000Z</time>
      </trkpt>
      <trkpt lat="46.19233" lon="4.61658">
        <ele>729.20001220703</ele>
        <time>2019-08-27T15:34:29.000Z</time>
      </trkpt>
      <trkpt lat="46.19235" lon="4.61677">
        <ele>730.20001220703</ele>
        <time>2019-08-27T15:34:35.000Z</time>
      </trkpt>
      <trkpt lat="46.19235" lon="4.61698">
        <ele>731.59997558594</ele>
        <time>2019-08-27T15:34:40.000Z</time>
      </trkpt>
      <trkpt lat="46.19236" lon="4.6171">
        <ele>732.59997558594</ele>
        <time>2019-08-27T15:34:43.000Z</time>
      </trkpt>
      <trkpt lat="46.19236" lon="4.61723">
        <ele>733.40002441406</ele>
        <time>2019-08-27T15:34:46.000Z</time>
      </trkpt>
      <trkpt lat="46.19236" lon="4.61728">
        <ele>733.79998779297</ele>
        <time>2019-08-27T15:34:47.000Z</time>
      </trkpt>
      <trkpt lat="46.19237" lon="4.61745">
        <ele>734.79998779297</ele>
        <time>2019-08-27T15:34:51.000Z</time>
      </trkpt>
      <trkpt lat="46.19238" lon="4.61758">
        <ele>735.59997558594</ele>
        <time>2019-08-27T15:34:54.000Z</time>
      </trkpt>
      <trkpt lat="46.19238" lon="4.61767">
        <ele>736.20001220703</ele>
        <time>2019-08-27T15:34:56.000Z</time>
      </trkpt>
      <trkpt lat="46.19239" lon="4.61792">
        <ele>738</ele>
        <time>2019-08-27T15:35:02.000Z</time>
      </trkpt>
      <trkpt lat="46.1924" lon="4.61814">
        <ele>739.20001220703</ele>
        <time>2019-08-27T15:35:07.000Z</time>
      </trkpt>
      <trkpt lat="46.19241" lon="4.61828">
        <ele>739.79998779297</ele>
        <time>2019-08-27T15:35:10.000Z</time>
      </trkpt>
      <trkpt lat="46.19241" lon="4.61848">
        <ele>740.59997558594</ele>
        <time>2019-08-27T15:35:15.000Z</time>
      </trkpt>
      <trkpt lat="46.19242" lon="4.61861">
        <ele>741.20001220703</ele>
        <time>2019-08-27T15:35:18.000Z</time>
      </trkpt>
      <trkpt lat="46.19242" lon="4.61874">
        <ele>741.79998779297</ele>
        <time>2019-08-27T15:35:21.000Z</time>
      </trkpt>
      <trkpt lat="46.19243" lon="4.61901">
        <ele>743.20001220703</ele>
        <time>2019-08-27T15:35:27.000Z</time>
      </trkpt>
    </trkseg>
  </trk>
</gpx>